sensor_id;sensor_type;location;lat;lon;timestamp;pressure;altitude;pressure_sealevel;temperature;humidity
68179;BME280;54998;42.656;23.382;2022-08-19T00:01:53;94611.94;;;20.84;51.42
68179;BME280;54998;42.656;23.382;2022-08-19T00:04:30;94615.13;;;20.86;51.33
68179;BME280;54998;42.656;23.382;2022-08-19T00:06:57;94617.38;;;20.82;51.20
68179;BME280;54998;42.656;23.382;2022-08-19T00:09:24;94616.16;;;20.85;51.36
68179;BME280;54998;42.656;23.382;2022-08-19T00:11:50;94624.56;;;20.87;51.12
68179;BME280;54998;42.656;23.382;2022-08-19T00:14:16;94621.75;;;20.88;51.08
68179;BME280;54998;42.656;23.382;2022-08-19T00:16:45;94613.94;;;20.88;50.58
68179;BME280;54998;42.656;23.382;2022-08-19T00:19:11;94623.75;;;20.93;50.78
68179;BME280;54998;42.656;23.382;2022-08-19T00:21:37;94631.28;;;21.01;50.48
68179;BME280;54998;42.656;23.382;2022-08-19T00:24:05;94633.09;;;21.01;51.35
68179;BME280;54998;42.656;23.382;2022-08-19T00:26:31;94634.97;;;20.93;51.80
68179;BME280;54998;42.656;23.382;2022-08-19T00:28:57;94637.97;;;20.90;52.27
68179;BME280;54998;42.656;23.382;2022-08-19T00:31:22;94630.44;;;20.76;52.63
68179;BME280;54998;42.656;23.382;2022-08-19T00:33:48;94636.69;;;20.68;52.87
68179;BME280;54998;42.656;23.382;2022-08-19T00:36:17;94630.72;;;20.61;52.57
68179;BME280;54998;42.656;23.382;2022-08-19T00:38:42;94637.53;;;20.55;52.87
68179;BME280;54998;42.656;23.382;2022-08-19T00:41:13;94629.13;;;20.46;52.75
68179;BME280;54998;42.656;23.382;2022-08-19T00:43:40;94632.78;;;20.39;53.10
68179;BME280;54998;42.656;23.382;2022-08-19T00:46:06;94631.59;;;20.35;52.74
68179;BME280;54998;42.656;23.382;2022-08-19T00:48:32;94632.38;;;20.42;52.63
68179;BME280;54998;42.656;23.382;2022-08-19T00:50:58;94622.34;;;20.45;52.80
68179;BME280;54998;42.656;23.382;2022-08-19T00:53:27;94623.56;;;20.43;52.65
68179;BME280;54998;42.656;23.382;2022-08-19T00:55:56;94621.50;;;20.45;52.24
68179;BME280;54998;42.656;23.382;2022-08-19T00:58:27;94617.31;;;20.44;52.57
68179;BME280;54998;42.656;23.382;2022-08-19T01:00:54;94619.53;;;20.40;53.68
68179;BME280;54998;42.656;23.382;2022-08-19T01:03:20;94628.00;;;20.29;53.51
68179;BME280;54998;42.656;23.382;2022-08-19T01:05:47;94632.84;;;20.12;53.94
68179;BME280;54998;42.656;23.382;2022-08-19T01:08:15;94633.88;;;20.04;54.02
68179;BME280;54998;42.656;23.382;2022-08-19T01:10:45;94627.66;;;19.99;54.02
68179;BME280;54998;42.656;23.382;2022-08-19T01:13:15;94629.88;;;20.02;54.15
68179;BME280;54998;42.656;23.382;2022-08-19T01:15:47;94634.28;;;19.95;54.13
68179;BME280;54998;42.656;23.382;2022-08-19T01:18:14;94630.91;;;19.94;54.66
68179;BME280;54998;42.656;23.382;2022-08-19T01:20:43;94626.69;;;19.80;54.76
68179;BME280;54998;42.656;23.382;2022-08-19T01:23:09;94634.13;;;19.76;54.58
68179;BME280;54998;42.656;23.382;2022-08-19T01:28:04;94624.53;;;19.70;54.63
68179;BME280;54998;42.656;23.382;2022-08-19T01:30:33;94624.69;;;19.68;54.76
68179;BME280;54998;42.656;23.382;2022-08-19T01:32:59;94628.31;;;19.67;55.05
68179;BME280;54998;42.656;23.382;2022-08-19T01:35:30;94630.09;;;19.60;55.65
68179;BME280;54998;42.656;23.382;2022-08-19T01:37:59;94632.31;;;19.43;55.95
68179;BME280;54998;42.656;23.382;2022-08-19T01:40:30;94625.09;;;19.19;57.06
68179;BME280;54998;42.656;23.382;2022-08-19T01:42:56;94622.69;;;19.11;57.35
68179;BME280;54998;42.656;23.382;2022-08-19T01:45:26;94619.06;;;19.05;57.78
68179;BME280;54998;42.656;23.382;2022-08-19T01:47:52;94622.66;;;18.97;57.85
68179;BME280;54998;42.656;23.382;2022-08-19T01:50:18;94623.25;;;18.99;57.84
68179;BME280;54998;42.656;23.382;2022-08-19T01:52:44;94625.69;;;19.07;57.40
68179;BME280;54998;42.656;23.382;2022-08-19T01:55:14;94625.28;;;19.11;57.26
68179;BME280;54998;42.656;23.382;2022-08-19T01:57:43;94630.09;;;19.14;56.93
68179;BME280;54998;42.656;23.382;2022-08-19T02:00:12;94630.69;;;19.16;56.79
68179;BME280;54998;42.656;23.382;2022-08-19T02:02:40;94628.28;;;19.14;56.99
68179;BME280;54998;42.656;23.382;2022-08-19T02:05:06;94626.09;;;19.11;56.54
68179;BME280;54998;42.656;23.382;2022-08-19T02:07:33;94629.47;;;19.12;56.68
68179;BME280;54998;42.656;23.382;2022-08-19T02:10:02;94623.69;;;19.16;56.78
68179;BME280;54998;42.656;23.382;2022-08-19T02:12:28;94628.88;;;19.23;56.76
68179;BME280;54998;42.656;23.382;2022-08-19T02:14:54;94619.09;;;19.32;56.96
68179;BME280;54998;42.656;23.382;2022-08-19T02:17:19;94627.69;;;19.32;56.85
68179;BME280;54998;42.656;23.382;2022-08-19T02:19:45;94619.31;;;19.37;56.79
68179;BME280;54998;42.656;23.382;2022-08-19T02:22:11;94623.69;;;19.43;56.86
68179;BME280;54998;42.656;23.382;2022-08-19T02:24:36;94627.31;;;19.35;57.12
68179;BME280;54998;42.656;23.382;2022-08-19T02:27:01;94631.91;;;19.26;57.61
68179;BME280;54998;42.656;23.382;2022-08-19T02:29:27;94630.50;;;19.24;57.84
68179;BME280;54998;42.656;23.382;2022-08-19T02:31:53;94631.47;;;19.16;58.41
68179;BME280;54998;42.656;23.382;2022-08-19T02:34:18;94638.84;;;18.99;58.59
68179;BME280;54998;42.656;23.382;2022-08-19T02:36:44;94636.84;;;18.88;58.77
68179;BME280;54998;42.656;23.382;2022-08-19T02:39:10;94636.78;;;18.75;58.90
68179;BME280;54998;42.656;23.382;2022-08-19T02:41:35;94638.75;;;18.66;59.25
68179;BME280;54998;42.656;23.382;2022-08-19T02:44:02;94634.75;;;18.63;58.84
68179;BME280;54998;42.656;23.382;2022-08-19T02:46:31;94644.28;;;18.56;59.50
68179;BME280;54998;42.656;23.382;2022-08-19T02:49:00;94642.28;;;18.52;59.60
68179;BME280;54998;42.656;23.382;2022-08-19T02:51:30;94646.31;;;18.54;59.61
68179;BME280;54998;42.656;23.382;2022-08-19T02:53:56;94641.34;;;18.59;59.28
68179;BME280;54998;42.656;23.382;2022-08-19T02:56:23;94640.56;;;18.65;58.97
68179;BME280;54998;42.656;23.382;2022-08-19T02:58:49;94641.56;;;18.71;58.61
68179;BME280;54998;42.656;23.382;2022-08-19T03:01:26;94645.19;;;18.77;58.38
68179;BME280;54998;42.656;23.382;2022-08-19T03:03:53;94651.94;;;18.71;59.32
68179;BME280;54998;42.656;23.382;2022-08-19T03:06:19;94643.97;;;18.73;57.78
68179;BME280;54998;42.656;23.382;2022-08-19T03:08:46;94643.84;;;18.81;57.61
68179;BME280;54998;42.656;23.382;2022-08-19T03:11:20;94645.81;;;18.79;57.84
68179;BME280;54998;42.656;23.382;2022-08-19T03:13:46;94643.78;;;18.74;58.25
68179;BME280;54998;42.656;23.382;2022-08-19T03:16:14;94645.34;;;18.62;58.75
68179;BME280;54998;42.656;23.382;2022-08-19T03:18:40;94634.50;;;18.58;59.23
68179;BME280;54998;42.656;23.382;2022-08-19T03:21:06;94638.72;;;18.53;59.36
68179;BME280;54998;42.656;23.382;2022-08-19T03:23:32;94633.03;;;18.36;59.77
68179;BME280;54998;42.656;23.382;2022-08-19T03:25:58;94632.16;;;18.15;60.69
68179;BME280;54998;42.656;23.382;2022-08-19T03:28:24;94632.28;;;18.00;61.22
68179;BME280;54998;42.656;23.382;2022-08-19T03:31:20;94640.47;;;18.04;61.29
68179;BME280;54998;42.656;23.382;2022-08-19T03:33:48;94636.63;;;18.00;61.25
68179;BME280;54998;42.656;23.382;2022-08-19T03:36:25;94640.69;;;18.02;61.11
68179;BME280;54998;42.656;23.382;2022-08-19T03:38:57;94641.69;;;18.08;61.02
68179;BME280;54998;42.656;23.382;2022-08-19T03:41:31;94646.31;;;18.13;61.13
68179;BME280;54998;42.656;23.382;2022-08-19T03:43:58;94642.91;;;18.12;61.50
68179;BME280;54998;42.656;23.382;2022-08-19T03:46:26;94657.34;;;18.21;61.35
68179;BME280;54998;42.656;23.382;2022-08-19T03:48:53;94656.34;;;18.22;61.17
68179;BME280;54998;42.656;23.382;2022-08-19T03:51:24;94659.94;;;18.21;60.95
68179;BME280;54998;42.656;23.382;2022-08-19T03:53:51;94654.97;;;18.26;60.51
68179;BME280;54998;42.656;23.382;2022-08-19T03:56:17;94663.59;;;18.34;59.69
68179;BME280;54998;42.656;23.382;2022-08-19T03:58:43;94654.06;;;18.47;59.25
68179;BME280;54998;42.656;23.382;2022-08-19T04:01:11;94663.53;;;18.62;58.96
68179;BME280;54998;42.656;23.382;2022-08-19T04:03:39;94670.53;;;18.68;58.37
68179;BME280;54998;42.656;23.382;2022-08-19T04:06:19;94676.78;;;18.74;58.31
68179;BME280;54998;42.656;23.382;2022-08-19T04:08:48;94675.03;;;18.81;58.50
68179;BME280;54998;42.656;23.382;2022-08-19T04:11:17;94681.66;;;18.90;57.84
68179;BME280;54998;42.656;23.382;2022-08-19T04:13:43;94674.84;;;18.82;58.33
68179;BME280;54998;42.656;23.382;2022-08-19T04:16:10;94683.66;;;18.95;57.93
68179;BME280;54998;42.656;23.382;2022-08-19T04:18:37;94685.91;;;19.04;57.43
68179;BME280;54998;42.656;23.382;2022-08-19T04:21:03;94678.09;;;19.11;57.26
68179;BME280;54998;42.656;23.382;2022-08-19T04:23:29;94682.88;;;19.07;57.33
68179;BME280;54998;42.656;23.382;2022-08-19T04:25:55;94691.31;;;19.23;56.96
68179;BME280;54998;42.656;23.382;2022-08-19T04:28:22;94688.53;;;19.24;56.50
68179;BME280;54998;42.656;23.382;2022-08-19T04:30:48;94692.53;;;19.27;56.55
68179;BME280;54998;42.656;23.382;2022-08-19T04:33:16;94689.56;;;19.30;56.52
68179;BME280;54998;42.656;23.382;2022-08-19T04:35:44;94684.94;;;19.32;56.66
68179;BME280;54998;42.656;23.382;2022-08-19T04:38:11;94689.94;;;19.40;56.53
68179;BME280;54998;42.656;23.382;2022-08-19T04:40:41;94693.56;;;19.39;56.90
68179;BME280;54998;42.656;23.382;2022-08-19T04:43:26;94684.97;;;19.45;57.28
68179;BME280;54998;42.656;23.382;2022-08-19T04:45:51;94690.75;;;19.41;57.39
68179;BME280;54998;42.656;23.382;2022-08-19T04:48:18;94688.34;;;19.39;57.52
68179;BME280;54998;42.656;23.382;2022-08-19T04:50:52;94684.16;;;19.45;57.47
68179;BME280;54998;42.656;23.382;2022-08-19T04:53:29;94677.34;;;19.50;57.50
68179;BME280;54998;42.656;23.382;2022-08-19T04:55:56;94684.56;;;19.55;57.39
68179;BME280;54998;42.656;23.382;2022-08-19T04:58:24;94688.97;;;19.68;56.77
68179;BME280;54998;42.656;23.382;2022-08-19T05:00:50;94692.38;;;19.68;57.24
68179;BME280;54998;42.656;23.382;2022-08-19T05:03:16;94695.41;;;19.92;56.70
68179;BME280;54998;42.656;23.382;2022-08-19T05:05:44;94698.19;;;19.90;56.78
68179;BME280;54998;42.656;23.382;2022-08-19T05:08:15;94697.22;;;19.85;56.76
68179;BME280;54998;42.656;23.382;2022-08-19T05:10:45;94699.78;;;20.11;55.77
68179;BME280;54998;42.656;23.382;2022-08-19T05:13:11;94695.34;;;20.32;55.69
68179;BME280;54998;42.656;23.382;2022-08-19T05:15:36;94696.69;;;20.61;55.42
68179;BME280;54998;42.656;23.382;2022-08-19T05:18:02;94699.44;;;20.80;54.50
68179;BME280;54998;42.656;23.382;2022-08-19T05:20:45;94689.28;;;21.03;53.93
68179;BME280;54998;42.656;23.382;2022-08-19T05:23:29;94683.97;;;21.23;53.14
68179;BME280;54998;42.656;23.382;2022-08-19T05:25:55;94685.69;;;21.36;52.30
68179;BME280;54998;42.656;23.382;2022-08-19T05:28:21;94691.66;;;21.50;51.88
68179;BME280;54998;42.656;23.382;2022-08-19T05:30:47;94693.94;;;21.90;50.81
68179;BME280;54998;42.656;23.382;2022-08-19T05:33:13;94697.50;;;22.21;50.64
68179;BME280;54998;42.656;23.382;2022-08-19T05:35:39;94692.97;;;23.20;48.15
68179;BME280;54998;42.656;23.382;2022-08-19T05:38:07;94693.47;;;26.14;41.61
68179;BME280;54998;42.656;23.382;2022-08-19T05:40:38;94688.09;;;28.85;36.20
68179;BME280;54998;42.656;23.382;2022-08-19T05:43:06;94695.59;;;30.88;32.25
68179;BME280;54998;42.656;23.382;2022-08-19T05:45:32;94686.59;;;32.37;30.01
68179;BME280;54998;42.656;23.382;2022-08-19T05:47:57;94687.13;;;33.30;28.37
68179;BME280;54998;42.656;23.382;2022-08-19T05:50:23;94695.75;;;34.12;26.89
68179;BME280;54998;42.656;23.382;2022-08-19T05:52:50;94687.41;;;35.02;25.78
68179;BME280;54998;42.656;23.382;2022-08-19T05:55:16;94688.59;;;35.82;24.67
68179;BME280;54998;42.656;23.382;2022-08-19T05:57:42;94673.16;;;36.15;23.78
68179;BME280;54998;42.656;23.382;2022-08-19T06:00:08;94683.16;;;36.81;23.54
68179;BME280;54998;42.656;23.382;2022-08-19T06:02:35;94674.78;;;37.23;22.03
68179;BME280;54998;42.656;23.382;2022-08-19T06:05:03;94690.97;;;37.09;22.55
68179;BME280;54998;42.656;23.382;2022-08-19T06:07:29;94679.72;;;36.80;23.10
68179;BME280;54998;42.656;23.382;2022-08-19T06:09:55;94681.75;;;37.67;21.86
68179;BME280;54998;42.656;23.382;2022-08-19T06:12:20;94693.19;;;38.11;21.55
68179;BME280;54998;42.656;23.382;2022-08-19T06:14:55;94677.75;;;37.21;22.44
68179;BME280;54998;42.656;23.382;2022-08-19T06:17:21;94685.38;;;36.79;23.43
68179;BME280;54998;42.656;23.382;2022-08-19T06:19:49;94689.91;;;36.70;22.90
68179;BME280;54998;42.656;23.382;2022-08-19T06:22:17;94695.75;;;36.49;23.26
68179;BME280;54998;42.656;23.382;2022-08-19T06:24:42;94690.00;;;36.25;23.31
68179;BME280;54998;42.656;23.382;2022-08-19T06:27:08;94700.28;;;37.29;22.17
68179;BME280;54998;42.656;23.382;2022-08-19T06:29:34;94697.28;;;38.00;21.16
68179;BME280;54998;42.656;23.382;2022-08-19T06:32:01;94687.88;;;36.44;22.82
68179;BME280;54998;42.656;23.382;2022-08-19T06:34:31;94684.41;;;36.35;24.03
68179;BME280;54998;42.656;23.382;2022-08-19T06:36:59;94701.75;;;35.56;24.98
68179;BME280;54998;42.656;23.382;2022-08-19T06:39:29;94691.69;;;36.52;23.94
68179;BME280;54998;42.656;23.382;2022-08-19T06:41:57;94690.50;;;35.45;25.16
68179;BME280;54998;42.656;23.382;2022-08-19T06:44:26;94686.75;;;35.46;25.19
68179;BME280;54998;42.656;23.382;2022-08-19T06:46:53;94690.44;;;36.58;23.54
68179;BME280;54998;42.656;23.382;2022-08-19T06:49:19;94681.25;;;36.33;24.01
68179;BME280;54998;42.656;23.382;2022-08-19T06:51:46;94690.09;;;37.57;22.54
68179;BME280;54998;42.656;23.382;2022-08-19T06:54:13;94693.81;;;38.64;21.47
68179;BME280;54998;42.656;23.382;2022-08-19T06:56:39;94688.59;;;40.36;20.19
68179;BME280;54998;42.656;23.382;2022-08-19T06:59:08;94700.09;;;37.95;21.64
68179;BME280;54998;42.656;23.382;2022-08-19T07:01:40;94696.66;;;37.33;22.78
68179;BME280;54998;42.656;23.382;2022-08-19T07:04:07;94694.94;;;39.64;20.19
68179;BME280;54998;42.656;23.382;2022-08-19T07:06:34;94700.28;;;37.81;21.63
68179;BME280;54998;42.656;23.382;2022-08-19T07:08:59;94701.06;;;35.64;24.11
68179;BME280;54998;42.656;23.382;2022-08-19T07:11:25;94698.22;;;36.37;23.75
68179;BME280;54998;42.656;23.382;2022-08-19T07:13:51;94704.69;;;37.33;22.28
68179;BME280;54998;42.656;23.382;2022-08-19T07:16:18;94702.50;;;38.61;21.45
68179;BME280;54998;42.656;23.382;2022-08-19T07:18:49;94705.16;;;37.53;22.22
68179;BME280;54998;42.656;23.382;2022-08-19T07:21:18;94699.38;;;38.89;20.64
68179;BME280;54998;42.656;23.382;2022-08-19T07:23:45;94703.47;;;39.88;19.82
68179;BME280;54998;42.656;23.382;2022-08-19T07:28:35;94695.38;;;36.33;23.24
68179;BME280;54998;42.656;23.382;2022-08-19T07:31:07;94689.63;;;38.46;21.03
68179;BME280;54998;42.656;23.382;2022-08-19T07:33:33;94699.22;;;39.66;19.41
68179;BME280;54998;42.656;23.382;2022-08-19T07:36:03;94697.22;;;38.35;20.64
68179;BME280;54998;42.656;23.382;2022-08-19T07:38:29;94698.09;;;39.67;19.64
68179;BME280;54998;42.656;23.382;2022-08-19T07:40:55;94689.91;;;39.63;19.75
68179;BME280;54998;42.656;23.382;2022-08-19T07:43:20;94683.00;;;41.27;18.21
68179;BME280;54998;42.656;23.382;2022-08-19T07:45:51;94687.16;;;42.21;16.70
68179;BME280;54998;42.656;23.382;2022-08-19T07:48:18;94679.84;;;42.38;17.26
68179;BME280;54998;42.656;23.382;2022-08-19T07:50:44;94683.25;;;41.10;18.20
68179;BME280;54998;42.656;23.382;2022-08-19T07:53:10;94688.56;;;41.87;17.62
68179;BME280;54998;42.656;23.382;2022-08-19T07:55:36;94691.25;;;42.31;16.73
68179;BME280;54998;42.656;23.382;2022-08-19T07:58:02;94686.09;;;43.21;16.30
68179;BME280;54998;42.656;23.382;2022-08-19T08:00:30;94690.00;;;42.88;16.93
68179;BME280;54998;42.656;23.382;2022-08-19T08:02:55;94682.59;;;42.54;17.11
68179;BME280;54998;42.656;23.382;2022-08-19T08:05:21;94686.78;;;44.58;15.37
68179;BME280;54998;42.656;23.382;2022-08-19T08:08:05;94684.34;;;44.99;14.68
68179;BME280;54998;42.656;23.382;2022-08-19T08:10:50;94686.78;;;44.58;14.77
68179;BME280;54998;42.656;23.382;2022-08-19T08:13:15;94684.88;;;44.36;15.09
68179;BME280;54998;42.656;23.382;2022-08-19T08:15:41;94676.59;;;42.92;16.35
68179;BME280;54998;42.656;23.382;2022-08-19T08:18:11;94666.66;;;43.90;16.08
68179;BME280;54998;42.656;23.382;2022-08-19T08:20:37;94670.78;;;44.73;15.38
68179;BME280;54998;42.656;23.382;2022-08-19T08:23:02;94669.06;;;40.72;18.85
68179;BME280;54998;42.656;23.382;2022-08-19T08:25:47;94670.00;;;41.29;17.75
68179;BME280;54998;42.656;23.382;2022-08-19T08:28:14;94663.81;;;43.83;15.69
68179;BME280;54998;42.656;23.382;2022-08-19T08:30:40;94668.84;;;44.96;15.12
68179;BME280;54998;42.656;23.382;2022-08-19T08:33:07;94671.81;;;46.12;13.87
68179;BME280;54998;42.656;23.382;2022-08-19T08:35:33;94664.97;;;46.73;13.62
68179;BME280;54998;42.656;23.382;2022-08-19T08:37:59;94660.09;;;46.01;13.96
68179;BME280;54998;42.656;23.382;2022-08-19T08:40:52;94658.94;;;46.43;13.46
68179;BME280;54998;42.656;23.382;2022-08-19T08:43:33;94664.34;;;47.61;12.91
68179;BME280;54998;42.656;23.382;2022-08-19T08:46:35;94658.19;;;47.78;12.67
68179;BME280;54998;42.656;23.382;2022-08-19T08:54:37;94647.03;;;48.48;11.49
68179;BME280;54998;42.656;23.382;2022-08-19T08:57:09;94640.47;;;47.18;11.92
68179;BME280;54998;42.656;23.382;2022-08-19T08:59:40;94636.75;;;45.25;13.67
68179;BME280;54998;42.656;23.382;2022-08-19T09:02:07;94646.13;;;46.43;12.76
68179;BME280;54998;42.656;23.382;2022-08-19T09:04:35;94639.13;;;47.75;11.73
68179;BME280;54998;42.656;23.382;2022-08-19T09:10:06;94630.09;;;46.76;12.09
68179;BME280;54998;42.656;23.382;2022-08-19T09:15:12;94632.31;;;46.11;12.29
68179;BME280;54998;42.656;23.382;2022-08-19T09:17:38;94625.31;;;47.17;11.41
68179;BME280;54998;42.656;23.382;2022-08-19T09:20:05;94627.63;;;46.53;11.93
68179;BME280;54998;42.656;23.382;2022-08-19T09:22:36;94617.41;;;47.85;11.13
68179;BME280;54998;42.656;23.382;2022-08-19T09:25:02;94620.56;;;48.84;10.44
68179;BME280;54998;42.656;23.382;2022-08-19T09:27:29;94618.66;;;48.24;10.48
68179;BME280;54998;42.656;23.382;2022-08-19T09:29:54;94613.50;;;47.79;10.43
68179;BME280;54998;42.656;23.382;2022-08-19T09:32:21;94611.22;;;47.99;9.88
68179;BME280;54998;42.656;23.382;2022-08-19T09:34:47;94603.00;;;47.70;10.65
68179;BME280;54998;42.656;23.382;2022-08-19T09:37:13;94596.31;;;45.13;11.38
68179;BME280;54998;42.656;23.382;2022-08-19T09:39:39;94595.38;;;47.10;10.87
68179;BME280;54998;42.656;23.382;2022-08-19T09:42:06;94607.78;;;46.45;11.10
68179;BME280;54998;42.656;23.382;2022-08-19T09:44:38;94593.28;;;47.62;10.51
68179;BME280;54998;42.656;23.382;2022-08-19T09:47:04;94594.72;;;45.08;12.11
68179;BME280;54998;42.656;23.382;2022-08-19T09:49:29;94590.94;;;45.46;11.73
68179;BME280;54998;42.656;23.382;2022-08-19T09:51:56;94599.97;;;46.95;10.51
68179;BME280;54998;42.656;23.382;2022-08-19T09:54:23;94589.97;;;44.44;12.49
68179;BME280;54998;42.656;23.382;2022-08-19T09:56:49;94595.00;;;46.42;11.06
68179;BME280;54998;42.656;23.382;2022-08-19T09:59:14;94584.34;;;46.74;10.87
68179;BME280;54998;42.656;23.382;2022-08-19T10:01:40;94584.25;;;47.33;9.93
68179;BME280;54998;42.656;23.382;2022-08-19T10:04:05;94583.06;;;46.61;10.57
68179;BME280;54998;42.656;23.382;2022-08-19T10:06:36;94576.66;;;48.43;9.35
68179;BME280;54998;42.656;23.382;2022-08-19T10:09:04;94569.19;;;48.97;9.41
68179;BME280;54998;42.656;23.382;2022-08-19T10:11:32;94567.13;;;49.26;8.95
68179;BME280;54998;42.656;23.382;2022-08-19T10:13:57;94571.53;;;49.80;9.16
68179;BME280;54998;42.656;23.382;2022-08-19T10:16:24;94565.66;;;49.04;9.17
68179;BME280;54998;42.656;23.382;2022-08-19T10:18:50;94564.19;;;49.73;8.91
68179;BME280;54998;42.656;23.382;2022-08-19T10:21:23;94564.47;;;49.89;8.68
68179;BME280;54998;42.656;23.382;2022-08-19T10:23:51;94568.00;;;50.35;8.77
68179;BME280;54998;42.656;23.382;2022-08-19T10:26:22;94566.88;;;49.77;9.02
68179;BME280;54998;42.656;23.382;2022-08-19T10:28:49;94567.34;;;50.24;8.31
68179;BME280;54998;42.656;23.382;2022-08-19T10:31:19;94558.28;;;49.04;9.55
68179;BME280;54998;42.656;23.382;2022-08-19T10:33:46;94552.16;;;47.75;10.12
68179;BME280;54998;42.656;23.382;2022-08-19T10:36:21;94554.72;;;42.90;13.27
68179;BME280;54998;42.656;23.382;2022-08-19T10:38:50;94550.16;;;43.14;13.55
68179;BME280;54998;42.656;23.382;2022-08-19T10:41:19;94546.13;;;43.23;13.61
68179;BME280;54998;42.656;23.382;2022-08-19T10:43:46;94544.13;;;43.40;13.10
68179;BME280;54998;42.656;23.382;2022-08-19T10:46:13;94547.44;;;44.72;12.36
68179;BME280;54998;42.656;23.382;2022-08-19T10:48:40;94551.06;;;44.83;11.89
68179;BME280;54998;42.656;23.382;2022-08-19T10:51:06;94550.50;;;45.64;11.43
68179;BME280;54998;42.656;23.382;2022-08-19T10:53:51;94541.91;;;47.18;10.60
68179;BME280;54998;42.656;23.382;2022-08-19T10:56:17;94544.88;;;46.28;10.67
68179;BME280;54998;42.656;23.382;2022-08-19T10:59:01;94536.34;;;46.30;11.06
68179;BME280;54998;42.656;23.382;2022-08-19T11:01:29;94532.78;;;45.70;11.33
68179;BME280;54998;42.656;23.382;2022-08-19T11:03:55;94537.38;;;47.58;10.36
68179;BME280;54998;42.656;23.382;2022-08-19T11:06:23;94534.28;;;47.59;10.13
68179;BME280;54998;42.656;23.382;2022-08-19T11:08:51;94530.75;;;48.70;9.50
68179;BME280;54998;42.656;23.382;2022-08-19T11:11:17;94534.38;;;46.86;10.43
68179;BME280;54998;42.656;23.382;2022-08-19T11:13:43;94529.66;;;45.31;11.40
68179;BME280;54998;42.656;23.382;2022-08-19T11:16:16;94531.50;;;46.57;11.08
68179;BME280;54998;42.656;23.382;2022-08-19T11:18:54;94528.41;;;47.39;10.35
68179;BME280;54998;42.656;23.382;2022-08-19T11:21:32;94528.63;;;47.02;10.63
68179;BME280;54998;42.656;23.382;2022-08-19T11:24:04;94530.03;;;46.15;10.92
68179;BME280;54998;42.656;23.382;2022-08-19T11:26:31;94526.50;;;47.86;10.10
68179;BME280;54998;42.656;23.382;2022-08-19T11:28:58;94523.34;;;47.38;10.91
68179;BME280;54998;42.656;23.382;2022-08-19T11:31:28;94512.53;;;46.64;11.21
68179;BME280;54998;42.656;23.382;2022-08-19T11:33:59;94516.56;;;45.78;11.59
68179;BME280;54998;42.656;23.382;2022-08-19T11:36:27;94512.72;;;45.82;11.79
68179;BME280;54998;42.656;23.382;2022-08-19T11:38:53;94503.38;;;46.90;10.89
68179;BME280;54998;42.656;23.382;2022-08-19T11:43:57;94502.72;;;44.81;11.89
68179;BME280;54998;42.656;23.382;2022-08-19T11:46:24;94498.06;;;45.90;11.40
68179;BME280;54998;42.656;23.382;2022-08-19T11:48:50;94499.56;;;43.96;12.16
68179;BME280;54998;42.656;23.382;2022-08-19T11:51:21;94501.50;;;44.22;12.83
68179;BME280;54998;42.656;23.382;2022-08-19T11:53:48;94494.31;;;43.37;13.28
68179;BME280;54998;42.656;23.382;2022-08-19T11:56:14;94492.22;;;43.96;12.86
68179;BME280;54998;42.656;23.382;2022-08-19T11:58:40;94497.00;;;45.20;11.85
68179;BME280;54998;42.656;23.382;2022-08-19T12:01:10;94486.31;;;44.97;11.67
68179;BME280;54998;42.656;23.382;2022-08-19T12:03:37;94489.00;;;44.97;12.29
68179;BME280;54998;42.656;23.382;2022-08-19T12:06:06;94488.81;;;44.83;12.26
68179;BME280;54998;42.656;23.382;2022-08-19T12:08:33;94475.44;;;42.98;13.45
68179;BME280;54998;42.656;23.382;2022-08-19T12:10:58;94471.31;;;44.16;12.25
68179;BME280;54998;42.656;23.382;2022-08-19T12:13:27;94478.94;;;41.17;15.66
68179;BME280;54998;42.656;23.382;2022-08-19T12:15:53;94481.75;;;41.36;15.35
68179;BME280;54998;42.656;23.382;2022-08-19T12:18:19;94470.50;;;41.62;15.23
68179;BME280;54998;42.656;23.382;2022-08-19T12:20:44;94464.69;;;42.43;14.64
68179;BME280;54998;42.656;23.382;2022-08-19T12:23:11;94458.53;;;42.62;14.22
68179;BME280;54998;42.656;23.382;2022-08-19T12:25:42;94456.66;;;41.04;15.44
68179;BME280;54998;42.656;23.382;2022-08-19T12:28:08;94441.22;;;39.58;16.67
68179;BME280;54998;42.656;23.382;2022-08-19T12:30:37;94451.88;;;41.25;16.03
68179;BME280;54998;42.656;23.382;2022-08-19T12:33:03;94449.19;;;40.97;16.02
68179;BME280;54998;42.656;23.382;2022-08-19T12:35:28;94445.22;;;39.07;17.91
68179;BME280;54998;42.656;23.382;2022-08-19T12:37:55;94443.00;;;38.54;18.15
68179;BME280;54998;42.656;23.382;2022-08-19T12:42:49;94444.75;;;37.61;18.92
68179;BME280;54998;42.656;23.382;2022-08-19T12:45:16;94443.13;;;37.69;18.51
68179;BME280;54998;42.656;23.382;2022-08-19T12:47:42;94439.22;;;37.66;19.13
68179;BME280;54998;42.656;23.382;2022-08-19T12:50:08;94439.41;;;37.61;18.56
68179;BME280;54998;42.656;23.382;2022-08-19T12:52:35;94437.16;;;37.16;18.83
68179;BME280;54998;42.656;23.382;2022-08-19T12:55:07;94442.53;;;36.98;19.01
68179;BME280;54998;42.656;23.382;2022-08-19T12:57:33;94443.97;;;36.70;19.51
68179;BME280;54998;42.656;23.382;2022-08-19T13:00:11;94436.56;;;36.84;20.00
68179;BME280;54998;42.656;23.382;2022-08-19T13:02:39;94438.28;;;36.45;20.30
68179;BME280;54998;42.656;23.382;2022-08-19T13:05:08;94440.81;;;36.24;20.33
68179;BME280;54998;42.656;23.382;2022-08-19T13:07:34;94432.31;;;36.31;19.87
68179;BME280;54998;42.656;23.382;2022-08-19T13:10:00;94433.31;;;35.86;20.01
68179;BME280;54998;42.656;23.382;2022-08-19T13:12:25;94429.22;;;35.49;20.72
68179;BME280;54998;42.656;23.382;2022-08-19T13:14:52;94433.53;;;35.27;20.63
68179;BME280;54998;42.656;23.382;2022-08-19T13:17:19;94428.75;;;35.15;20.67